Time;durP1;ratioP1;P1;durP2;ratioP2;P2;SDS_P1;SDS_P2;PMS_P1;PMS_P2;Temp;Humidity;BMP_temperature;BMP_pressure;BME280_temperature;BME280_humidity;BME280_pressure;Samples;Min_cycle;Max_cycle;Signal;HPM_P1;HPM_P2
2022/12/24 00:01:09;;;;;;;8.57;6.17;;;5.10;91.40;;;;;;5036287;28;20243;-63
2022/12/24 00:03:36;;;;;;;6.67;5.93;;;5.00;91.60;;;;;;5068873;28;20221;-63
2022/12/24 00:06:06;;;;;;;7.23;5.80;;;5.00;91.50;;;;;;5084862;28;20187;-63
2022/12/24 00:08:32;;;;;;;10.03;6.70;;;5.00;91.70;;;;;;5045577;28;20418;-63
2022/12/24 00:10:58;;;;;;;7.30;5.60;;;5.00;91.60;;;;;;5052793;28;20436;-63
2022/12/24 00:13:24;;;;;;;7.33;5.40;;;5.00;91.50;;;;;;5054668;28;20186;-63
2022/12/24 00:15:50;;;;;;;10.43;7.03;;;4.90;91.70;;;;;;5051522;28;20194;-63
2022/12/24 00:18:16;;;;;;;8.17;6.47;;;4.90;92.00;;;;;;5037865;28;20196;-63
2022/12/24 00:20:46;;;;;;;9.20;6.83;;;4.90;91.90;;;;;;5048005;28;20191;-63
2022/12/24 00:23:12;;;;;;;10.27;6.77;;;4.80;92.00;;;;;;5047759;28;20620;-63
2022/12/24 00:25:38;;;;;;;8.13;6.57;;;4.70;92.00;;;;;;5048930;28;20425;-63
2022/12/24 00:28:04;;;;;;;10.73;7.27;;;4.70;91.70;;;;;;5021146;28;20448;-63
2022/12/24 00:30:30;;;;;;;9.83;7.63;;;4.70;91.40;;;;;;5039593;28;20185;-63
2022/12/24 00:32:55;;;;;;;11.73;7.83;;;4.60;92.10;;;;;;5084261;28;20193;-63
2022/12/24 00:35:21;;;;;;;9.70;7.63;;;4.50;91.70;;;;;;5068197;28;20223;-63
2022/12/24 00:37:48;;;;;;;11.03;7.57;;;4.50;91.90;;;;;;5052674;28;20191;-63
2022/12/24 00:40:15;;;;;;;9.17;6.97;;;4.40;91.90;;;;;;5079220;28;20187;-63
2022/12/24 00:42:41;;;;;;;8.33;6.67;;;4.40;92.50;;;;;;5036787;28;20531;-63
2022/12/24 00:45:08;;;;;;;10.90;6.60;;;4.40;92.80;;;;;;5033218;28;20433;-63
2022/12/24 00:47:33;;;;;;;7.93;6.47;;;4.40;93.00;;;;;;5049636;28;20230;-63
2022/12/24 00:49:59;;;;;;;6.13;5.13;;;4.40;93.00;;;;;;5048757;28;21009;-63
2022/12/24 00:52:25;;;;;;;5.93;5.30;;;4.40;92.80;;;;;;5030309;28;20186;-63
2022/12/24 00:54:51;;;;;;;5.83;4.63;;;4.40;93.00;;;;;;5044654;28;20183;-63
2022/12/24 00:57:16;;;;;;;5.23;4.57;;;4.40;92.90;;;;;;5034449;28;20228;-63
2022/12/24 00:59:42;;;;;;;7.13;4.73;;;4.40;93.20;;;;;;5045464;28;20193;-63
2022/12/24 01:02:08;;;;;;;6.73;5.37;;;4.40;93.30;;;;;;5051703;28;20190;-63
2022/12/24 01:07:18;;;;;;;8.33;5.77;;;4.30;92.80;;;;;;5060359;28;20236;-63
2022/12/24 01:09:44;;;;;;;6.30;4.80;;;4.30;93.00;;;;;;5042451;28;20432;-63
2022/12/24 01:12:09;;;;;;;5.63;4.27;;;4.20;92.90;;;;;;5048768;28;20638;-63
2022/12/24 01:14:36;;;;;;;5.33;4.73;;;4.20;93.10;;;;;;5064847;28;20190;-63
2022/12/24 01:17:02;;;;;;;7.00;4.73;;;4.20;93.10;;;;;;5049531;28;20194;-63
2022/12/24 01:19:28;;;;;;;6.10;4.83;;;4.20;93.10;;;;;;5047082;28;20449;-63
2022/12/24 01:21:53;;;;;;;7.00;5.40;;;4.10;92.90;;;;;;5031264;28;20198;-63
2022/12/24 01:24:19;;;;;;;5.60;4.13;;;4.10;93.10;;;;;;5038100;28;20213;-63
2022/12/24 01:26:45;;;;;;;5.10;4.13;;;4.10;93.20;;;;;;5026612;28;20201;-63
2022/12/24 01:29:10;;;;;;;4.60;3.70;;;4.00;93.40;;;;;;5036541;28;20194;-63
2022/12/24 01:31:36;;;;;;;4.83;3.97;;;4.00;93.60;;;;;;5049905;28;20183;-63
2022/12/24 01:34:02;;;;;;;6.60;4.10;;;4.00;93.70;;;;;;5019456;28;20179;-63
2022/12/24 01:36:28;;;;;;;6.03;4.40;;;4.00;93.50;;;;;;5063410;28;20194;-63
2022/12/24 01:38:53;;;;;;;5.60;4.90;;;4.00;93.70;;;;;;5045044;28;20217;-63
2022/12/24 01:44:27;;;;;;;5.50;4.07;;;3.90;93.60;;;;;;5052337;28;20217;-63
2022/12/24 01:47:28;;;;;;;6.00;4.57;;;3.90;93.00;;;;;;5051088;28;20487;-63
2022/12/24 01:49:58;;;;;;;6.10;4.60;;;3.90;93.50;;;;;;5052047;28;20425;-63
2022/12/24 01:52:28;;;;;;;4.53;3.80;;;3.90;93.80;;;;;;5052847;28;20449;-63
2022/12/24 01:54:59;;;;;;;6.17;4.83;;;3.90;93.70;;;;;;5083903;28;20420;-63
2022/12/24 01:57:43;;;;;;;5.60;4.57;;;3.90;93.80;;;;;;5086465;28;20436;-63
2022/12/24 02:00:13;;;;;;;7.43;4.70;;;3.90;94.00;;;;;;5052515;28;20427;-63
2022/12/24 02:02:45;;;;;;;6.20;4.43;;;3.90;93.80;;;;;;5045210;28;20783;-63
2022/12/24 02:05:53;;;;;;;4.77;3.80;;;3.90;94.00;;;;;;5049481;28;20470;-63
2022/12/24 02:08:19;;;;;;;6.37;4.13;;;3.90;94.10;;;;;;5066580;28;20431;-63
2022/12/24 02:10:46;;;;;;;5.77;3.70;;;3.90;93.90;;;;;;5055557;28;20439;-63
2022/12/24 02:13:14;;;;;;;6.17;3.97;;;3.90;94.00;;;;;;5034645;28;20187;-63
2022/12/24 02:16:12;;;;;;;5.23;3.70;;;3.90;94.20;;;;;;5085284;28;20523;-63
2022/12/24 02:19:11;;;;;;;4.03;3.03;;;3.90;94.20;;;;;;5065665;28;20430;-63
2022/12/24 02:21:59;;;;;;;4.20;3.53;;;3.90;94.00;;;;;;5058864;28;20587;-63
2022/12/24 02:24:50;;;;;;;5.07;3.60;;;3.90;94.10;;;;;;5049680;28;20456;-63
2022/12/24 02:27:45;;;;;;;4.80;3.70;;;3.90;94.00;;;;;;5052895;28;20428;-63
2022/12/24 02:30:14;;;;;;;6.03;4.07;;;3.90;94.00;;;;;;5057932;28;20424;-63
2022/12/24 02:33:21;;;;;;;4.27;3.60;;;3.90;94.30;;;;;;5074255;28;20464;-63
2022/12/24 02:35:49;;;;;;;7.20;4.10;;;3.90;94.40;;;;;;5042551;28;20430;-63
2022/12/24 02:38:31;;;;;;;5.40;3.97;;;3.90;94.40;;;;;;5041236;28;21021;-63
2022/12/24 02:41:02;;;;;;;5.77;3.93;;;3.90;94.50;;;;;;5044118;28;20416;-63
2022/12/24 02:43:36;;;;;;;3.73;3.10;;;3.90;94.70;;;;;;5055261;28;20458;-63
2022/12/24 02:46:08;;;;;;;4.17;3.13;;;4.00;94.80;;;;;;5039353;28;20532;-63
2022/12/24 02:48:36;;;;;;;5.43;3.90;;;4.00;94.70;;;;;;5053719;28;20774;-63
2022/12/24 02:51:06;;;;;;;3.60;3.30;;;4.00;94.80;;;;;;5042015;28;20530;-63
2022/12/24 02:53:34;;;;;;;6.20;3.20;;;3.90;94.50;;;;;;5088647;28;20520;-63
2022/12/24 02:56:14;;;;;;;4.43;3.40;;;3.90;94.60;;;;;;5091213;28;20444;-63
2022/12/24 02:58:52;;;;;;;4.90;3.43;;;3.90;95.00;;;;;;5056528;28;20436;-63
2022/12/24 03:01:24;;;;;;;5.47;3.93;;;3.90;94.80;;;;;;5088563;28;20452;-63
2022/12/24 03:04:17;;;;;;;5.00;3.43;;;3.90;94.90;;;;;;5053950;28;20523;-63
2022/12/24 03:06:45;;;;;;;3.43;3.00;;;3.90;93.80;;;;;;5058263;28;20490;-63
2022/12/24 03:09:35;;;;;;;4.10;3.23;;;3.70;94.40;;;;;;5055101;28;20430;-63
2022/12/24 03:12:14;;;;;;;3.70;3.03;;;3.70;94.70;;;;;;5054604;28;20432;-63
2022/12/24 03:14:41;;;;;;;4.37;3.47;;;3.70;94.70;;;;;;5050708;28;20425;-63
2022/12/24 03:17:07;;;;;;;6.60;3.20;;;3.70;94.10;;;;;;5088570;28;20449;-63
2022/12/24 03:19:34;;;;;;;5.87;3.23;;;3.70;94.50;;;;;;5055475;28;20475;-63
2022/12/24 03:22:03;;;;;;;4.03;2.97;;;3.70;94.60;;;;;;5049578;28;20438;-63
2022/12/24 03:24:29;;;;;;;4.10;3.27;;;3.60;94.40;;;;;;5048239;28;20491;-63
2022/12/24 03:26:55;;;;;;;6.83;3.00;;;3.60;94.30;;;;;;5033063;28;20943;-63
2022/12/24 03:29:21;;;;;;;4.40;2.93;;;3.50;93.90;;;;;;5050917;28;20190;-63
2022/12/24 03:31:49;;;;;;;4.00;2.80;;;3.50;94.30;;;;;;5065095;28;20416;-63
2022/12/24 03:34:16;;;;;;;4.70;3.20;;;3.50;94.00;;;;;;5056036;28;20174;-62
2022/12/24 03:36:42;;;;;;;3.63;3.00;;;3.50;94.50;;;;;;5045544;28;20426;-62
2022/12/24 03:39:08;;;;;;;3.40;2.50;;;3.40;94.40;;;;;;5039184;28;20443;-62
2022/12/24 03:41:35;;;;;;;3.30;2.60;;;3.30;94.40;;;;;;5056422;28;20264;-62
2022/12/24 03:44:01;;;;;;;3.40;3.10;;;3.30;94.60;;;;;;5038361;28;20500;-62
2022/12/24 03:46:27;;;;;;;4.43;3.47;;;3.30;94.40;;;;;;5038377;28;20484;-62
2022/12/24 03:48:53;;;;;;;5.83;3.87;;;3.30;94.10;;;;;;5043523;28;20436;-62
2022/12/24 03:51:24;;;;;;;6.30;4.80;;;3.20;94.30;;;;;;5032797;28;20190;-62
2022/12/24 03:53:52;;;;;;;6.40;4.57;;;3.10;94.50;;;;;;5054902;28;20511;-62
2022/12/24 03:56:19;;;;;;;6.43;4.70;;;3.10;94.50;;;;;;5069365;28;20471;-62
2022/12/24 03:58:44;;;;;;;6.73;4.33;;;3.10;94.80;;;;;;5035369;28;20441;-62
2022/12/24 04:01:10;;;;;;;6.80;5.10;;;3.10;94.90;;;;;;5054501;28;20997;-62
2022/12/24 04:03:36;;;;;;;7.50;5.20;;;3.10;95.00;;;;;;5009828;28;20363;-62
2022/12/24 04:06:07;;;;;;;8.90;5.10;;;3.10;95.00;;;;;;5035300;28;20182;-62
2022/12/24 04:08:34;;;;;;;5.77;4.27;;;3.10;95.00;;;;;;5041438;28;20183;-62
2022/12/24 04:11:00;;;;;;;5.90;4.07;;;3.10;94.70;;;;;;5034099;28;20425;-62
2022/12/24 04:13:25;;;;;;;4.87;4.10;;;3.00;94.70;;;;;;5049559;28;20586;-62
2022/12/24 04:15:59;;;;;;;5.77;4.27;;;3.00;94.60;;;;;;5053794;28;20492;-62
2022/12/24 04:18:26;;;;;;;7.17;4.97;;;3.00;94.70;;;;;;5053403;28;20186;-62
2022/12/24 04:20:52;;;;;;;6.23;4.17;;;2.90;94.40;;;;;;5053321;28;20431;-62
2022/12/24 04:23:18;;;;;;;5.10;3.97;;;2.80;94.40;;;;;;5074572;28;20470;-63
2022/12/24 04:25:44;;;;;;;5.37;4.23;;;2.80;94.50;;;;;;5049665;28;20422;-63
2022/12/24 04:28:10;;;;;;;7.20;4.40;;;2.80;94.60;;;;;;5037078;28;20198;-63
2022/12/24 04:30:37;;;;;;;4.87;3.97;;;2.70;94.50;;;;;;5053596;28;20178;-63
2022/12/24 04:33:03;;;;;;;4.83;3.63;;;2.70;94.60;;;;;;5051472;28;20188;-62
2022/12/24 04:35:28;;;;;;;5.17;4.17;;;2.60;94.50;;;;;;5050876;28;20521;-62
2022/12/24 04:37:54;;;;;;;4.37;3.97;;;2.60;94.60;;;;;;5049406;28;20193;-62
2022/12/24 04:40:20;;;;;;;4.63;4.07;;;2.50;94.50;;;;;;5032142;28;20230;-62
2022/12/24 04:42:45;;;;;;;5.13;3.50;;;2.50;94.60;;;;;;5048348;28;20195;-62
2022/12/24 04:45:11;;;;;;;6.13;4.83;;;2.50;94.50;;;;;;5043735;28;20179;-62
2022/12/24 04:47:37;;;;;;;6.37;4.20;;;2.50;94.50;;;;;;5031929;28;20242;-62
2022/12/24 04:50:03;;;;;;;6.03;4.30;;;2.50;94.60;;;;;;5028520;28;20262;-63
2022/12/24 04:52:29;;;;;;;7.03;4.50;;;2.40;94.90;;;;;;5033060;28;20206;-63
2022/12/24 04:54:54;;;;;;;7.23;4.90;;;2.40;94.70;;;;;;5049726;28;20440;-63
2022/12/24 04:57:20;;;;;;;6.97;4.73;;;2.40;94.50;;;;;;5014967;28;20248;-63
2022/12/24 04:59:46;;;;;;;6.53;3.73;;;2.40;94.50;;;;;;5031209;28;20194;-63
2022/12/24 05:02:11;;;;;;;5.70;4.40;;;2.30;94.70;;;;;;5050977;28;20197;-63
2022/12/24 05:04:37;;;;;;;7.97;4.20;;;2.30;94.00;;;;;;5047283;28;20199;-62
2022/12/24 05:07:03;;;;;;;5.37;4.03;;;2.20;94.50;;;;;;5043259;28;20190;-63
2022/12/24 05:09:29;;;;;;;4.40;3.83;;;2.20;94.80;;;;;;5029747;28;20190;-64
2022/12/24 05:11:55;;;;;;;5.77;4.00;;;2.20;94.70;;;;;;5053832;28;20282;-64
2022/12/24 05:14:20;;;;;;;4.33;3.63;;;2.10;94.40;;;;;;5055914;28;20237;-63
2022/12/24 05:16:46;;;;;;;8.17;4.47;;;2.10;94.70;;;;;;5033565;28;20224;-63
2022/12/24 05:19:12;;;;;;;5.63;4.67;;;2.10;94.50;;;;;;5085058;28;20191;-63
2022/12/24 05:21:37;;;;;;;6.63;5.03;;;2.00;94.60;;;;;;5027277;28;20198;-63
2022/12/24 05:26:53;;;;;;;7.33;4.50;;;2.00;94.70;;;;;;5040664;28;20247;-63
2022/12/24 05:29:20;;;;;;;6.23;4.10;;;1.90;95.20;;;;;;5043918;28;20434;-63
2022/12/24 05:31:45;;;;;;;7.73;5.33;;;1.90;95.10;;;;;;5045550;28;20425;-63
2022/12/24 05:34:13;;;;;;;7.00;4.70;;;1.90;94.80;;;;;;5028455;28;20449;-63
2022/12/24 05:36:39;;;;;;;8.87;4.70;;;1.80;95.00;;;;;;5045363;28;20191;-63
2022/12/24 05:39:05;;;;;;;6.53;4.83;;;1.80;95.50;;;;;;5046112;28;20440;-63
2022/12/24 05:41:31;;;;;;;5.43;3.83;;;1.80;95.50;;;;;;5039051;28;20187;-63
2022/12/24 05:43:57;;;;;;;6.13;4.73;;;1.80;95.00;;;;;;5043343;28;20655;-63
2022/12/24 05:46:23;;;;;;;8.47;4.90;;;1.80;95.30;;;;;;5023040;28;20477;-63
2022/12/24 05:48:51;;;;;;;8.63;4.63;;;1.80;95.20;;;;;;5026691;28;20193;-62
2022/12/24 05:51:18;;;;;;;7.27;4.57;;;1.80;95.10;;;;;;5051106;28;20447;-62
2022/12/24 05:53:45;;;;;;;7.50;4.63;;;1.80;95.30;;;;;;5043837;28;20433;-63
2022/12/24 05:56:13;;;;;;;7.60;4.17;;;1.80;95.30;;;;;;5046755;28;20521;-62
2022/12/24 05:58:40;;;;;;;8.67;4.30;;;1.80;95.20;;;;;;5047222;28;20433;-65
2022/12/24 06:01:07;;;;;;;6.30;4.90;;;1.70;95.20;;;;;;5025396;28;20453;-63
2022/12/24 06:03:34;;;;;;;7.23;4.70;;;1.70;95.40;;;;;;5038737;28;20515;-62
2022/12/24 06:06:02;;;;;;;6.07;4.40;;;1.70;95.50;;;;;;5051129;28;20425;-64
2022/12/24 06:08:29;;;;;;;5.87;4.33;;;1.70;95.30;;;;;;5050713;28;20483;-63
2022/12/24 06:10:56;;;;;;;4.93;4.10;;;1.70;95.30;;;;;;5052366;28;20427;-63
2022/12/24 06:13:22;;;;;;;4.90;3.73;;;1.60;94.80;;;;;;5058162;28;20446;-64
2022/12/24 06:15:48;;;;;;;7.13;3.97;;;1.60;95.20;;;;;;5048885;28;20524;-64
2022/12/24 06:18:14;;;;;;;5.03;3.90;;;1.60;95.20;;;;;;5052823;28;20198;-64
2022/12/24 06:20:39;;;;;;;6.60;4.30;;;1.60;95.40;;;;;;5063073;28;20654;-63
2022/12/24 06:23:05;;;;;;;5.27;4.00;;;1.60;95.30;;;;;;5049395;28;20233;-63
2022/12/24 06:25:30;;;;;;;5.93;4.23;;;1.60;95.40;;;;;;5036042;28;20178;-62
2022/12/24 06:27:56;;;;;;;5.63;3.77;;;1.60;95.40;;;;;;5044528;28;20233;-62
2022/12/24 06:30:23;;;;;;;6.37;4.17;;;1.70;95.20;;;;;;5040637;28;20187;-62
2022/12/24 06:32:49;;;;;;;7.50;5.37;;;1.70;94.70;;;;;;5036578;28;20213;-62
2022/12/24 06:35:14;;;;;;;6.57;5.30;;;1.60;95.10;;;;;;5042939;28;20440;-62
2022/12/24 06:37:40;;;;;;;6.73;4.60;;;1.60;95.50;;;;;;5047885;28;20194;-62
2022/12/24 06:40:06;;;;;;;6.63;5.27;;;1.60;95.30;;;;;;5050264;28;20191;-63
2022/12/24 06:42:32;;;;;;;7.07;4.93;;;1.60;95.20;;;;;;5032385;28;20190;-63
2022/12/24 06:44:58;;;;;;;6.57;4.70;;;1.70;95.30;;;;;;5031592;28;20475;-62
2022/12/24 06:47:24;;;;;;;6.27;4.77;;;1.70;94.60;;;;;;5044824;28;20262;-63
2022/12/24 06:49:49;;;;;;;6.27;4.30;;;1.70;94.80;;;;;;5033095;28;20198;-60
2022/12/24 06:52:15;;;;;;;7.83;5.83;;;1.60;94.10;;;;;;5028600;28;20214;-61
2022/12/24 06:54:40;;;;;;;10.90;5.93;;;1.70;94.10;;;;;;5040154;28;20187;-61
2022/12/24 06:57:06;;;;;;;9.70;5.67;;;1.70;94.30;;;;;;5069268;28;20183;-61
2022/12/24 06:59:32;;;;;;;6.60;4.87;;;1.70;94.20;;;;;;5058972;28;20203;-61
2022/12/24 07:01:58;;;;;;;7.33;6.13;;;1.60;94.20;;;;;;5029069;28;20670;-61
2022/12/24 07:04:23;;;;;;;6.43;5.37;;;1.60;94.30;;;;;;5028583;28;20221;-62
2022/12/24 07:06:49;;;;;;;5.77;4.40;;;1.70;94.20;;;;;;5029037;28;20191;-62
2022/12/24 07:09:14;;;;;;;7.57;5.70;;;1.60;94.40;;;;;;5048535;28;20215;-62
2022/12/24 07:11:40;;;;;;;8.90;5.47;;;1.60;94.30;;;;;;5035589;28;20190;-63
2022/12/24 07:14:06;;;;;;;6.43;5.83;;;1.60;94.60;;;;;;5034606;28;20641;-62
2022/12/24 07:16:31;;;;;;;7.57;6.13;;;1.60;94.20;;;;;;5039818;28;20190;-62
2022/12/24 07:18:57;;;;;;;8.33;6.20;;;1.60;94.70;;;;;;5036152;28;20252;-63
2022/12/24 07:21:23;;;;;;;7.77;5.50;;;1.60;94.20;;;;;;5031978;28;20198;-62
2022/12/24 07:23:48;;;;;;;8.03;6.00;;;1.60;94.60;;;;;;5015436;28;20296;-63
2022/12/24 07:26:14;;;;;;;7.53;6.10;;;1.60;94.60;;;;;;5018243;28;20180;-61
2022/12/24 07:28:40;;;;;;;7.43;5.83;;;1.70;94.70;;;;;;5019317;28;20196;-62
2022/12/24 07:31:05;;;;;;;6.10;5.27;;;1.70;94.50;;;;;;5035268;28;20198;-61
2022/12/24 07:33:31;;;;;;;7.13;5.57;;;1.70;94.50;;;;;;5057873;28;20194;-61
2022/12/24 07:36:02;;;;;;;8.17;5.33;;;1.70;94.00;;;;;;5035961;28;20224;-61
2022/12/24 07:38:29;;;;;;;5.97;4.47;;;1.70;94.80;;;;;;5036131;28;20195;-61
2022/12/24 07:40:55;;;;;;;7.67;5.13;;;1.70;95.00;;;;;;5034152;28;20437;-60
2022/12/24 07:43:21;;;;;;;6.17;4.30;;;1.80;95.00;;;;;;5032032;28;20476;-61
2022/12/24 07:45:46;;;;;;;7.20;4.67;;;1.90;95.20;;;;;;5022247;28;20476;-62
2022/12/24 07:48:12;;;;;;;9.13;5.33;;;1.90;95.20;;;;;;5034307;28;20191;-62
2022/12/24 07:50:38;;;;;;;6.70;4.93;;;1.90;95.10;;;;;;5049884;28;20239;-62
2022/12/24 07:53:04;;;;;;;8.03;5.60;;;2.00;95.40;;;;;;5027892;28;20704;-62
2022/12/24 07:55:29;;;;;;;7.77;5.50;;;2.10;95.30;;;;;;5030113;28;20186;-62
2022/12/24 07:57:55;;;;;;;8.47;5.67;;;2.10;95.20;;;;;;5019318;28;20203;-62
2022/12/24 08:00:21;;;;;;;9.87;5.37;;;2.10;95.40;;;;;;5033573;28;20182;-62
2022/12/24 08:02:46;;;;;;;8.60;6.63;;;2.20;95.40;;;;;;5054127;28;20197;-62
2022/12/24 08:05:12;;;;;;;6.23;5.40;;;2.20;95.50;;;;;;5037678;28;20271;-62
2022/12/24 08:07:38;;;;;;;7.13;5.83;;;2.30;95.50;;;;;;5051022;28;20187;-62
2022/12/24 08:10:04;;;;;;;10.33;6.47;;;2.40;95.60;;;;;;5051987;28;20192;-62
2022/12/24 08:12:30;;;;;;;9.17;6.53;;;2.40;95.80;;;;;;5030258;28;20194;-63
2022/12/24 08:14:55;;;;;;;6.83;5.87;;;2.50;96.00;;;;;;5053133;28;20451;-61
2022/12/24 08:17:21;;;;;;;9.83;7.73;;;2.50;95.80;;;;;;5049026;28;20212;-61
2022/12/24 08:19:47;;;;;;;8.80;7.63;;;2.70;95.60;;;;;;5045727;28;20201;-62
2022/12/24 08:22:12;;;;;;;11.27;7.60;;;2.70;95.50;;;;;;5026445;28;20253;-62
2022/12/24 08:24:38;;;;;;;10.77;6.57;;;2.80;95.40;;;;;;5043626;28;20237;-61
2022/12/24 08:27:04;;;;;;;8.40;6.07;;;2.90;95.30;;;;;;5026387;28;20189;-61
2022/12/24 08:29:29;;;;;;;8.13;6.33;;;2.90;95.30;;;;;;5033434;28;20183;-62
2022/12/24 08:31:55;;;;;;;9.93;5.47;;;3.00;95.40;;;;;;5035300;28;20247;-62
2022/12/24 08:34:21;;;;;;;10.00;8.03;;;3.00;95.50;;;;;;5035076;28;20186;-62
2022/12/24 08:36:46;;;;;;;9.40;7.13;;;3.10;95.00;;;;;;5040734;28;20248;-62
2022/12/24 08:39:12;;;;;;;9.00;7.57;;;3.10;95.20;;;;;;5032841;28;20190;-62
2022/12/24 08:41:38;;;;;;;9.90;8.23;;;3.30;95.20;;;;;;5034092;28;20294;-61
2022/12/24 08:44:03;;;;;;;11.27;9.40;;;3.30;95.00;;;;;;5023587;28;20214;-61
2022/12/24 08:46:29;;;;;;;8.20;6.87;;;3.30;94.90;;;;;;5036703;28;20238;-63
2022/12/24 08:48:55;;;;;;;12.60;9.07;;;3.40;94.60;;;;;;5053739;28;20231;-63
2022/12/24 08:51:20;;;;;;;12.80;10.17;;;3.50;94.20;;;;;;5068691;28;20220;-62
2022/12/24 08:53:46;;;;;;;15.57;13.83;;;3.50;94.70;;;;;;5015917;28;20202;-62
2022/12/24 08:56:12;;;;;;;15.27;13.40;;;3.50;94.80;;;;;;5009826;28;20187;-62
2022/12/24 08:58:38;;;;;;;14.60;13.10;;;3.60;94.80;;;;;;5026221;28;20194;-62
2022/12/24 09:01:16;;;;;;;9.93;8.87;;;3.60;94.60;;;;;;5051808;28;20429;-62
2022/12/24 09:03:42;;;;;;;12.20;10.60;;;3.60;94.60;;;;;;5051914;28;20460;-63
2022/12/24 09:06:09;;;;;;;11.93;10.03;;;3.60;94.00;;;;;;5036729;28;20436;-63
2022/12/24 09:08:35;;;;;;;11.17;8.77;;;3.60;94.00;;;;;;5045599;28;20422;-63
2022/12/24 09:11:03;;;;;;;10.17;8.57;;;3.60;94.20;;;;;;5049567;28;20424;-62
2022/12/24 09:13:29;;;;;;;9.00;8.00;;;3.60;94.00;;;;;;5058509;28;20429;-62
2022/12/24 09:15:55;;;;;;;9.17;8.20;;;3.60;94.20;;;;;;5034648;28;20495;-62
2022/12/24 09:18:20;;;;;;;10.63;9.43;;;3.70;94.20;;;;;;5029277;28;20256;-62
2022/12/24 09:20:46;;;;;;;9.73;8.73;;;3.70;94.10;;;;;;5047635;28;20182;-62
2022/12/24 09:23:13;;;;;;;9.90;8.43;;;3.60;94.00;;;;;;5064747;28;20297;-62
2022/12/24 09:25:42;;;;;;;9.57;8.57;;;3.60;94.00;;;;;;5067080;28;20642;-62
2022/12/24 09:28:08;;;;;;;9.67;8.33;;;3.60;94.20;;;;;;5051431;28;20432;-62
2022/12/24 09:30:35;;;;;;;11.30;9.60;;;3.60;94.30;;;;;;5037140;28;20427;-62
2022/12/24 09:33:01;;;;;;;11.63;8.67;;;3.60;94.10;;;;;;5043525;28;20428;-62
2022/12/24 09:35:27;;;;;;;9.43;7.70;;;3.60;94.20;;;;;;5034121;28;20421;-62
2022/12/24 09:38:01;;;;;;;10.07;7.97;;;3.70;94.20;;;;;;5032766;28;20197;-62
2022/12/24 09:40:36;;;;;;;10.50;8.77;;;3.70;94.30;;;;;;5022533;28;20185;-62
2022/12/24 09:43:12;;;;;;;8.83;7.60;;;3.70;94.30;;;;;;5041321;28;20512;-62
2022/12/24 09:45:45;;;;;;;7.30;6.47;;;3.80;94.60;;;;;;5051712;28;20480;-63
2022/12/24 09:48:27;;;;;;;7.13;5.77;;;3.80;94.60;;;;;;5053834;28;20933;-63
2022/12/24 09:51:19;;;;;;;9.17;6.20;;;3.90;94.70;;;;;;5052311;28;20424;-63
2022/12/24 09:53:52;;;;;;;7.63;5.97;;;3.90;94.60;;;;;;5037463;28;20442;-63
2022/12/24 09:56:22;;;;;;;7.63;6.10;;;4.00;94.50;;;;;;5052841;28;20503;-63
2022/12/24 09:59:20;;;;;;;7.97;6.23;;;4.00;94.30;;;;;;5049355;28;20480;-63
2022/12/24 10:01:47;;;;;;;6.53;5.73;;;4.10;94.40;;;;;;5051935;28;20421;-63
2022/12/24 10:04:15;;;;;;;8.07;6.37;;;4.20;94.50;;;;;;5053308;28;20464;-63
2022/12/24 10:06:58;;;;;;;6.93;5.47;;;4.20;94.20;;;;;;5052690;28;20428;-62
2022/12/24 10:09:47;;;;;;;9.27;6.90;;;4.30;94.20;;;;;;5041975;28;20509;-63
2022/12/24 10:12:31;;;;;;;9.20;6.43;;;4.40;93.90;;;;;;5036518;28;20429;-64
2022/12/24 10:15:08;;;;;;;8.73;7.27;;;4.50;93.90;;;;;;5041684;28;20433;-61
2022/12/24 10:17:43;;;;;;;10.47;7.27;;;4.50;93.60;;;;;;5064849;28;20448;-62
2022/12/24 10:20:24;;;;;;;7.97;6.90;;;4.50;93.20;;;;;;5085941;28;20435;-62
2022/12/24 10:23:19;;;;;;;7.73;5.80;;;4.60;93.20;;;;;;5044271;28;20433;-63
2022/12/24 10:25:51;;;;;;;5.83;5.20;;;4.70;93.50;;;;;;5052579;28;20428;-63
2022/12/24 10:28:22;;;;;;;7.60;6.80;;;4.70;93.60;;;;;;5048991;28;20429;-63
2022/12/24 10:30:52;;;;;;;10.97;7.67;;;4.80;93.60;;;;;;5053613;28;20435;-64
2022/12/24 10:33:23;;;;;;;9.70;7.87;;;4.90;93.10;;;;;;5052933;28;20436;-64
2022/12/24 10:35:53;;;;;;;7.33;5.97;;;5.00;93.20;;;;;;5056676;28;20425;-63
2022/12/24 10:38:19;;;;;;;7.20;6.10;;;5.10;93.10;;;;;;5051988;28;20506;-66
2022/12/24 10:40:51;;;;;;;10.93;8.40;;;5.10;92.90;;;;;;5048493;28;20465;-64
2022/12/24 10:43:19;;;;;;;8.47;6.10;;;5.20;92.70;;;;;;5058185;28;20202;-62
2022/12/24 10:45:49;;;;;;;14.37;8.30;;;5.30;92.70;;;;;;5053442;28;20614;-63
2022/12/24 10:48:38;;;;;;;8.70;7.23;;;5.30;92.10;;;;;;5051129;28;20449;-61
2022/12/24 10:51:13;;;;;;;9.70;7.27;;;5.30;92.30;;;;;;5052341;28;20428;-64
2022/12/24 10:53:42;;;;;;;9.60;7.37;;;5.30;92.00;;;;;;5054849;28;20507;-63
2022/12/24 10:56:12;;;;;;;8.57;6.63;;;5.30;91.90;;;;;;5051499;28;20428;-64
2022/12/24 10:58:44;;;;;;;13.33;9.23;;;5.40;92.20;;;;;;5057138;28;20432;-63
2022/12/24 11:01:10;;;;;;;12.20;9.47;;;5.30;91.10;;;;;;5045713;28;20594;-62
2022/12/24 11:03:41;;;;;;;14.60;9.47;;;5.50;91.40;;;;;;5035180;28;20519;-64
2022/12/24 11:06:14;;;;;;;10.90;8.93;;;5.50;91.30;;;;;;5036239;28;20440;-61
2022/12/24 11:08:44;;;;;;;10.73;8.47;;;5.50;91.40;;;;;;5055374;28;20421;-62
2022/12/24 11:11:19;;;;;;;13.23;9.70;;;5.50;91.40;;;;;;5052118;28;20441;-62
2022/12/24 11:13:50;;;;;;;15.70;11.87;;;5.60;91.10;;;;;;5048789;28;20475;-62
2022/12/24 11:16:31;;;;;;;12.87;10.83;;;5.70;89.20;;;;;;5050021;28;20414;-61
2022/12/24 11:19:06;;;;;;;19.83;11.83;;;5.80;90.10;;;;;;5064124;28;20433;-61
2022/12/24 11:21:39;;;;;;;14.00;11.50;;;5.90;90.10;;;;;;5054618;28;20428;-62
2022/12/24 11:24:23;;;;;;;12.30;10.23;;;6.00;90.20;;;;;;5034852;28;20492;-62
2022/12/24 11:26:48;;;;;;;13.83;10.30;;;6.10;90.10;;;;;;5047319;28;20491;-63
2022/12/24 11:29:17;;;;;;;14.37;11.53;;;6.20;90.40;;;;;;5033305;28;20442;-63
2022/12/24 11:31:44;;;;;;;15.47;11.33;;;6.30;89.50;;;;;;5056099;28;20274;-63
2022/12/24 11:34:32;;;;;;;13.27;10.87;;;6.40;89.20;;;;;;5040831;28;20433;-63
2022/12/24 11:37:15;;;;;;;14.03;11.20;;;6.60;89.40;;;;;;5043512;28;20445;-63
2022/12/24 11:40:11;;;;;;;15.43;12.30;;;6.80;89.50;;;;;;5045777;28;20432;-63
2022/12/24 11:42:39;;;;;;;14.53;11.33;;;6.90;87.00;;;;;;5033294;28;20442;-63
2022/12/24 11:45:20;;;;;;;16.07;11.80;;;7.00;87.50;;;;;;5054402;28;20202;-63
2022/12/24 11:47:46;;;;;;;12.90;11.07;;;7.20;87.80;;;;;;5076155;28;20433;-63
2022/12/24 11:50:31;;;;;;;13.57;10.23;;;7.40;87.10;;;;;;5022248;28;20182;-63
2022/12/24 11:53:10;;;;;;;15.23;10.57;;;7.60;84.10;;;;;;5047495;28;20633;-63
2022/12/24 11:55:42;;;;;;;11.07;9.80;;;7.80;82.00;;;;;;5054454;28;20202;-63
2022/12/24 11:58:13;;;;;;;13.10;9.53;;;8.00;83.70;;;;;;5054515;28;20189;-63
2022/12/24 12:00:40;;;;;;;15.10;10.07;;;8.10;82.70;;;;;;5077897;28;20183;-63
2022/12/24 12:03:41;;;;;;;10.80;9.30;;;8.30;78.60;;;;;;5033952;28;20277;-63
2022/12/24 12:06:20;;;;;;;10.90;8.93;;;8.50;79.80;;;;;;5047737;28;20187;-64
2022/12/24 12:08:47;;;;;;;10.47;8.83;;;8.60;78.20;;;;;;5041562;28;20185;-63
2022/12/24 12:11:14;;;;;;;9.60;8.60;;;8.80;77.90;;;;;;5052187;28;20187;-63
2022/12/24 12:13:44;;;;;;;9.83;8.33;;;8.90;76.90;;;;;;5028782;28;20280;-63
2022/12/24 12:16:59;;;;;;;13.03;8.83;;;8.90;76.80;;;;;;5045042;28;20193;-63
2022/12/24 12:19:27;;;;;;;11.43;8.50;;;8.90;76.60;;;;;;5048877;28;20684;-63
2022/12/24 12:21:53;;;;;;;10.27;7.50;;;9.00;76.70;;;;;;5079093;28;20209;-63
2022/12/24 12:24:24;;;;;;;11.27;9.87;;;9.10;77.60;;;;;;5013824;28;20234;-63
2022/12/24 12:27:02;;;;;;;10.53;8.73;;;9.20;76.50;;;;;;5044496;28;20194;-64
2022/12/24 12:29:44;;;;;;;8.70;7.37;;;9.20;77.40;;;;;;5040166;28;20241;-63
2022/12/24 12:32:40;;;;;;;9.67;8.00;;;9.20;76.80;;;;;;5037824;28;20183;-63
2022/12/24 12:35:27;;;;;;;7.80;6.90;;;9.20;77.40;;;;;;5037051;28;20191;-64
2022/12/24 12:38:00;;;;;;;8.23;6.00;;;9.20;77.10;;;;;;5051662;28;20208;-62
2022/12/24 12:40:50;;;;;;;6.80;6.00;;;9.20;77.80;;;;;;5040319;28;20294;-62
2022/12/24 12:43:26;;;;;;;8.33;6.13;;;9.40;77.40;;;;;;5050570;28;20213;-62
2022/12/24 12:46:14;;;;;;;6.97;6.23;;;9.50;73.50;;;;;;5048876;28;20241;-62
2022/12/24 12:48:54;;;;;;;6.90;5.50;;;9.80;73.40;;;;;;5070167;28;20220;-62
2022/12/24 12:51:40;;;;;;;8.57;6.67;;;10.00;73.60;;;;;;5081568;28;20190;-63
2022/12/24 12:54:54;;;;;;;7.63;6.37;;;10.20;69.80;;;;;;5051903;28;20265;-61
2022/12/24 12:57:25;;;;;;;7.20;5.93;;;10.50;70.00;;;;;;5040638;28;20195;-61
2022/12/24 12:59:51;;;;;;;7.30;5.63;;;10.70;71.10;;;;;;5050595;28;20235;-61
2022/12/24 13:02:31;;;;;;;8.07;6.30;;;10.90;68.80;;;;;;5053039;28;20194;-61
2022/12/24 13:05:22;;;;;;;8.70;6.40;;;11.10;66.90;;;;;;5067095;28;20202;-62
2022/12/24 13:07:57;;;;;;;8.00;6.77;;;11.30;66.50;;;;;;5053132;28;20191;-61
2022/12/24 13:10:59;;;;;;;8.23;6.77;;;11.50;67.30;;;;;;5087338;28;20221;-62
2022/12/24 13:13:53;;;;;;;9.23;6.83;;;11.70;67.50;;;;;;5050725;28;20191;-63
2022/12/24 13:16:37;;;;;;;6.83;5.73;;;11.90;66.00;;;;;;5053293;28;20269;-63
2022/12/24 13:19:12;;;;;;;7.10;6.33;;;12.00;66.20;;;;;;5050033;28;20218;-61